createdAt,value
2019-04-14T00:02:07.372Z,4.90
2019-04-14T00:04:37.892Z,5.00
2019-04-14T00:07:06.335Z,5.00
2019-04-14T00:09:35.713Z,4.90
2019-04-14T00:12:07.154Z,4.80
2019-04-14T00:14:35.683Z,4.80
2019-04-14T00:17:04.270Z,4.80
2019-04-14T00:19:32.733Z,4.90
2019-04-14T00:22:01.568Z,4.90
2019-04-14T00:24:29.934Z,5.00
2019-04-14T00:26:59.461Z,5.00
2019-04-14T00:29:28.445Z,5.00
2019-04-14T00:31:57.074Z,5.00
2019-04-14T00:34:46.296Z,4.90
2019-04-14T00:37:22.739Z,4.90
2019-04-14T00:39:59.670Z,5.00
2019-04-14T00:42:38.831Z,4.90
2019-04-14T00:45:09.158Z,4.80
2019-04-14T00:47:59.692Z,4.70
2019-04-14T00:50:21.759Z,4.80
2019-04-14T00:52:50.196Z,4.80
2019-04-14T00:55:20.411Z,4.70
2019-04-14T00:57:48.947Z,4.80
2019-04-14T01:00:19.239Z,4.70
2019-04-14T01:02:49.408Z,4.70
2019-04-14T01:05:21.753Z,4.80
2019-04-14T01:07:52.236Z,4.80
2019-04-14T01:10:25.606Z,4.90
2019-04-14T01:12:58.260Z,4.80
2019-04-14T01:15:28.964Z,4.80
2019-04-14T01:17:57.146Z,4.80
2019-04-14T01:20:25.721Z,4.80
2019-04-14T01:22:55.214Z,4.70
2019-04-14T01:25:23.950Z,4.80
2019-04-14T01:27:52.297Z,4.70
2019-04-14T01:30:21.898Z,4.70
2019-04-14T01:32:50.356Z,4.60
2019-04-14T01:35:18.729Z,4.70
2019-04-14T01:37:47.123Z,4.70
2019-04-14T01:40:16.405Z,4.60
2019-04-14T01:42:44.921Z,4.60
2019-04-14T01:45:14.923Z,4.70
2019-04-14T01:47:44.506Z,4.70
2019-04-14T01:50:12.982Z,4.70
2019-04-14T01:52:58.918Z,4.90
2019-04-14T01:55:28.963Z,4.90
2019-04-14T01:57:59.034Z,4.80
2019-04-14T02:00:45.263Z,4.70
2019-04-14T02:03:14.841Z,4.80
2019-04-14T02:05:43.313Z,4.80
2019-04-14T02:08:11.711Z,4.70
2019-04-14T02:10:41.182Z,4.70
2019-04-14T02:13:09.690Z,4.80
2019-04-14T02:15:38.064Z,4.70
2019-04-14T02:18:07.702Z,4.70
2019-04-14T02:20:36.236Z,4.70
2019-04-14T02:23:05.967Z,4.70
2019-04-14T02:25:35.921Z,4.70
2019-04-14T02:28:04.799Z,4.70
2019-04-14T02:30:41.576Z,4.70
2019-04-14T02:33:32.166Z,4.60
2019-04-14T02:36:05.764Z,4.60
2019-04-14T02:38:41.218Z,4.40
2019-04-14T02:41:04.355Z,4.40
2019-04-14T02:43:37.597Z,4.50
2019-04-14T02:45:57.755Z,4.50
2019-04-14T02:51:04.290Z,4.50
2019-04-14T02:53:32.539Z,4.60
2019-04-14T02:58:38.431Z,4.30
2019-04-14T03:03:35.579Z,4.30
2019-04-14T03:05:57.954Z,4.40
2019-04-14T03:08:36.060Z,4.50
2019-04-14T03:11:05.495Z,4.40
2019-04-14T03:13:30.798Z,4.40
2019-04-14T03:18:44.611Z,4.30
2019-04-14T03:21:04.376Z,4.30
2019-04-14T03:23:40.596Z,4.20
2019-04-14T03:26:24.980Z,4.40
2019-04-14T03:28:51.287Z,4.40
2019-04-14T03:38:58.837Z,4.30
2019-04-14T03:43:54.261Z,4.20
2019-04-14T03:48:58.557Z,4.30
2019-04-14T03:51:45.038Z,4.30
2019-04-14T03:53:55.949Z,4.20
2019-04-14T03:56:09.143Z,4.30
2019-04-14T03:58:35.734Z,4.30
2019-04-14T04:01:04.352Z,4.20
2019-04-14T04:03:32.745Z,4.20
2019-04-14T04:06:01.130Z,4.20
2019-04-14T04:08:29.504Z,4.10
2019-04-14T04:10:59.806Z,4.10
2019-04-14T04:13:28.429Z,4.10
2019-04-14T04:15:58.468Z,4.20
2019-04-14T04:18:30.948Z,4.10
2019-04-14T04:21:16.323Z,4.10
2019-04-14T04:23:46.819Z,4.10
2019-04-14T04:26:19.608Z,4.20
2019-04-14T04:29:06.987Z,4.10
2019-04-14T04:31:37.411Z,4.10
2019-04-14T04:34:27.193Z,4.10
2019-04-14T04:37:06.178Z,4.10
2019-04-14T04:39:39.770Z,4.10
2019-04-14T04:42:09.330Z,4.00
2019-04-14T04:44:37.801Z,4.00
2019-04-14T04:47:06.192Z,4.00
2019-04-14T04:49:34.564Z,4.10
2019-04-14T04:52:03.996Z,4.20
2019-04-14T04:54:32.539Z,4.10
2019-04-14T04:57:00.959Z,4.10
2019-04-14T04:59:29.965Z,4.00
2019-04-14T05:01:58.432Z,3.90
2019-04-14T05:04:26.818Z,4.00
2019-04-14T05:06:59.561Z,4.00
2019-04-14T05:09:39.095Z,4.10
2019-04-14T05:12:17.971Z,4.20
2019-04-14T05:15:03.581Z,4.10
2019-04-14T05:17:34.271Z,4.20
2019-04-14T05:20:03.190Z,4.20
2019-04-14T05:22:31.744Z,4.30
2019-04-14T05:25:01.350Z,4.30
2019-04-14T05:27:29.922Z,4.30
2019-04-14T05:29:58.292Z,4.30
2019-04-14T05:32:26.690Z,4.30
2019-04-14T05:34:55.068Z,4.30
2019-04-14T05:37:24.658Z,4.30
2019-04-14T05:39:53.138Z,4.30
2019-04-14T05:42:25.165Z,4.30
2019-04-14T05:44:51.641Z,4.40
2019-04-14T05:47:20.047Z,4.40
2019-04-14T05:49:52.741Z,4.50
2019-04-14T05:52:18.545Z,4.50
2019-04-14T05:54:47.101Z,4.60
2019-04-14T05:57:15.587Z,4.60
2019-04-14T05:59:44.107Z,4.70
2019-04-14T06:02:13.474Z,4.80
2019-04-14T06:04:42.136Z,4.70
2019-04-14T06:07:10.553Z,4.80
2019-04-14T06:09:38.930Z,4.70
2019-04-14T06:12:07.350Z,4.80
2019-04-14T06:14:35.705Z,4.70
2019-04-14T06:17:04.118Z,4.70
2019-04-14T06:19:38.105Z,4.70
2019-04-14T06:22:02.600Z,4.70
2019-04-14T06:24:30.980Z,4.70
2019-04-14T06:26:59.407Z,4.70
2019-04-14T06:29:27.869Z,4.90
2019-04-14T06:32:06.834Z,4.90
2019-04-14T06:34:43.084Z,5.00
2019-04-14T06:37:13.375Z,5.20
2019-04-14T06:39:55.526Z,5.30
2019-04-14T06:42:23.934Z,5.30
2019-04-14T06:44:52.333Z,5.40
2019-04-14T06:47:20.802Z,5.50
2019-04-14T06:49:49.538Z,5.60
2019-04-14T06:52:17.973Z,5.70
2019-04-14T06:54:46.371Z,5.70
2019-04-14T06:57:14.820Z,5.70
2019-04-14T06:59:43.414Z,5.70
2019-04-14T07:02:11.839Z,5.70
2019-04-14T07:04:40.226Z,5.80
2019-04-14T07:07:08.707Z,5.80
2019-04-14T07:09:37.090Z,5.90
2019-04-14T07:12:05.567Z,6.00
2019-04-14T07:14:33.888Z,6.10
2019-04-14T07:17:02.384Z,6.10
2019-04-14T07:19:30.861Z,6.10
2019-04-14T07:21:59.260Z,6.10
2019-04-14T07:24:27.664Z,6.20
2019-04-14T07:26:56.061Z,6.10
2019-04-14T07:29:26.160Z,6.10
2019-04-14T07:32:07.996Z,6.10
2019-04-14T07:34:54.498Z,6.10
2019-04-14T07:37:27.341Z,6.10
2019-04-14T07:40:06.229Z,6.10
2019-04-14T07:42:42.071Z,6.20
2019-04-14T07:45:21.124Z,6.40
2019-04-14T07:47:51.161Z,6.60
2019-04-14T07:50:30.313Z,6.70
2019-04-14T07:53:16.617Z,6.80
2019-04-14T07:55:55.850Z,6.90
2019-04-14T08:01:13.992Z,7.20
2019-04-14T08:04:00.521Z,7.20
2019-04-14T08:06:28.909Z,7.30
2019-04-14T08:08:57.326Z,7.30
2019-04-14T08:11:25.712Z,7.30
2019-04-14T08:13:54.124Z,7.30
2019-04-14T08:16:22.507Z,7.40
2019-04-14T08:18:50.924Z,7.50
2019-04-14T08:21:19.318Z,7.50
2019-04-14T08:23:47.747Z,7.50
2019-04-14T08:26:16.130Z,7.40
2019-04-14T08:28:44.543Z,7.40
2019-04-14T08:31:12.940Z,7.40
2019-04-14T08:33:41.360Z,7.50
2019-04-14T08:36:09.748Z,7.50
2019-04-14T08:38:38.166Z,7.50
2019-04-14T08:41:07.019Z,7.60
2019-04-14T08:43:42.777Z,7.50
2019-04-14T08:46:12.900Z,7.40
2019-04-14T08:48:59.313Z,7.50
2019-04-14T08:51:44.566Z,7.60
2019-04-14T08:54:14.601Z,7.60
2019-04-14T08:57:00.890Z,7.80
2019-04-14T08:59:36.734Z,7.90
2019-04-14T09:02:15.615Z,8.00
2019-04-14T09:04:57.963Z,8.20
2019-04-14T09:07:27.989Z,8.50
2019-04-14T09:09:58.067Z,8.70
2019-04-14T09:12:28.098Z,9.00
2019-04-14T09:14:57.596Z,9.10
2019-04-14T09:17:27.868Z,9.40
2019-04-14T09:19:56.321Z,9.50
2019-04-14T09:22:24.706Z,9.60
2019-04-14T09:24:53.139Z,9.60
2019-04-14T09:27:21.531Z,9.70
2019-04-14T09:29:52.269Z,10.10
2019-04-14T09:32:20.334Z,10.60
2019-04-14T09:34:48.814Z,10.60
2019-04-14T09:37:17.148Z,10.20
2019-04-14T09:39:45.604Z,10.10
2019-04-14T09:42:14.349Z,10.10
2019-04-14T09:44:42.794Z,10.20
2019-04-14T09:47:11.196Z,10.30
2019-04-14T09:49:39.646Z,10.40
2019-04-14T09:52:08.023Z,10.90
2019-04-14T09:54:42.805Z,11.40
2019-04-14T09:57:11.494Z,11.60
2019-04-14T09:59:39.980Z,11.90
2019-04-14T10:02:08.484Z,12.10
2019-04-14T10:04:36.908Z,12.10
2019-04-14T10:07:05.423Z,12.10
2019-04-14T10:09:34.369Z,12.20
2019-04-14T10:12:02.760Z,12.50
2019-04-14T10:14:31.198Z,12.60
2019-04-14T10:17:01.479Z,12.50
2019-04-14T10:19:30.186Z,12.60
2019-04-14T10:21:58.581Z,12.70
2019-04-14T10:24:40.759Z,13.10
2019-04-14T10:27:10.082Z,13.20
2019-04-14T10:29:38.493Z,13.30
2019-04-14T10:32:06.925Z,13.50
2019-04-14T10:34:35.384Z,13.50
2019-04-14T10:37:03.730Z,13.60
2019-04-14T10:39:32.147Z,13.60
2019-04-14T10:42:03.862Z,13.40
2019-04-14T10:44:31.984Z,13.40
2019-04-14T10:47:00.477Z,13.30
2019-04-14T10:49:28.947Z,12.90
2019-04-14T10:51:57.568Z,12.90
2019-04-14T10:54:26.059Z,12.90
2019-04-14T10:56:54.734Z,12.60
2019-04-14T10:59:23.137Z,12.90
2019-04-14T11:01:52.900Z,13.50
2019-04-14T11:04:22.526Z,14.30
2019-04-14T11:06:58.876Z,14.80
2019-04-14T11:09:27.325Z,14.80
2019-04-14T11:11:55.829Z,14.50
2019-04-14T11:14:24.312Z,14.50
2019-04-14T11:16:52.723Z,15.00
2019-04-14T11:19:21.186Z,15.20
2019-04-14T11:21:49.747Z,15.50
2019-04-14T11:24:18.256Z,16.10
2019-04-14T11:26:46.675Z,15.70
2019-04-14T11:29:15.106Z,15.50
2019-04-14T11:31:51.110Z,15.30
2019-04-14T11:34:33.392Z,14.70
2019-04-14T11:37:15.358Z,14.10
2019-04-14T11:39:45.425Z,13.90
2019-04-14T11:42:13.851Z,13.30
2019-04-14T11:44:42.298Z,12.90
2019-04-14T11:47:11.028Z,12.70
2019-04-14T11:49:39.413Z,12.70
2019-04-14T11:52:07.832Z,12.60
2019-04-14T11:54:36.249Z,12.60
2019-04-14T11:57:04.659Z,12.70
2019-04-14T11:59:43.655Z,12.80
2019-04-14T12:02:16.743Z,12.90
2019-04-14T12:04:46.782Z,13.00
2019-04-14T12:07:16.844Z,12.90
2019-04-14T12:09:49.579Z,12.70
2019-04-14T12:12:17.990Z,12.80
2019-04-14T12:14:46.378Z,12.80
2019-04-14T12:17:14.802Z,13.00
2019-04-14T12:19:43.210Z,13.10
2019-04-14T12:22:11.625Z,13.20
2019-04-14T12:24:40.031Z,13.20
2019-04-14T12:27:08.519Z,13.20
2019-04-14T12:29:36.937Z,13.00
2019-04-14T12:32:06.359Z,12.90
2019-04-14T12:34:35.133Z,12.90
2019-04-14T12:37:04.581Z,12.80
2019-04-14T12:39:33.776Z,12.70
2019-04-14T12:42:06.743Z,12.90
2019-04-14T12:44:45.767Z,13.00
2019-04-14T12:47:15.823Z,13.20
2019-04-14T12:49:51.550Z,13.40
2019-04-14T12:52:22.163Z,13.40
2019-04-14T12:54:50.605Z,13.20
2019-04-14T12:57:20.960Z,13.20
2019-04-14T12:59:49.305Z,12.90
2019-04-14T13:02:25.231Z,12.70
2019-04-14T13:04:55.350Z,12.70
2019-04-14T13:07:25.139Z,12.70
2019-04-14T13:09:53.863Z,12.70
2019-04-14T13:12:22.445Z,12.70
2019-04-14T13:14:50.817Z,12.60
2019-04-14T13:17:19.226Z,12.40
2019-04-14T13:19:47.807Z,12.40
2019-04-14T13:22:16.297Z,12.40
2019-04-14T13:24:44.717Z,12.50
2019-04-14T13:27:13.300Z,12.50
2019-04-14T13:29:41.862Z,12.40
2019-04-14T13:32:10.272Z,12.40
2019-04-14T13:34:38.663Z,12.50
2019-04-14T13:37:07.846Z,12.60
2019-04-14T13:39:36.401Z,12.60
2019-04-14T13:42:04.904Z,12.60
2019-04-14T13:44:33.397Z,12.60
2019-04-14T13:47:01.883Z,12.50
2019-04-14T13:49:32.002Z,12.60
2019-04-14T13:52:00.621Z,12.70
2019-04-14T13:54:29.190Z,12.80
2019-04-14T13:56:57.948Z,12.90
2019-04-14T13:59:26.943Z,12.90
2019-04-14T14:01:55.528Z,13.00
2019-04-14T14:04:24.166Z,13.10
2019-04-14T14:06:52.957Z,13.10
2019-04-14T14:09:22.094Z,13.10
2019-04-14T14:12:00.219Z,13.00
2019-04-14T14:14:36.138Z,13.00
2019-04-14T14:17:06.174Z,12.90
2019-04-14T14:19:45.302Z,12.90
2019-04-14T14:22:15.475Z,12.90
2019-04-14T14:25:01.696Z,12.80
2019-04-14T14:27:30.191Z,12.70
2019-04-14T14:29:58.648Z,12.60
2019-04-14T14:32:28.668Z,12.60
2019-04-14T14:34:57.139Z,12.50
2019-04-14T14:37:26.046Z,12.30
2019-04-14T14:39:57.314Z,12.20
2019-04-14T14:42:25.698Z,12.10
2019-04-14T14:44:55.973Z,11.90
2019-04-14T14:47:26.045Z,11.90
2019-04-14T14:49:58.986Z,11.90
2019-04-14T14:52:27.549Z,11.80
2019-04-14T14:54:55.959Z,11.70
2019-04-14T14:57:24.366Z,11.60
2019-04-14T14:59:52.779Z,11.60
2019-04-14T15:02:21.779Z,11.70
2019-04-14T15:04:50.211Z,11.90
2019-04-14T15:07:18.677Z,12.10
2019-04-14T15:09:47.129Z,12.10
2019-04-14T15:12:17.766Z,12.00
2019-04-14T15:14:46.748Z,11.80
2019-04-14T15:17:15.913Z,11.70
2019-04-14T15:19:44.823Z,11.60
2019-04-14T15:22:13.792Z,11.60
2019-04-14T15:24:42.194Z,11.50
2019-04-14T15:27:10.743Z,11.40
2019-04-14T15:29:39.421Z,11.30
2019-04-14T15:32:07.909Z,11.30
2019-04-14T15:34:36.299Z,11.20
2019-04-14T15:37:05.376Z,11.10
2019-04-14T15:39:34.179Z,11.20
2019-04-14T15:42:02.811Z,11.20
2019-04-14T15:44:31.613Z,11.30
2019-04-14T15:47:00.125Z,11.40
2019-04-14T15:49:28.558Z,11.50
2019-04-14T15:51:57.076Z,11.50
2019-04-14T15:54:25.710Z,11.60
2019-04-14T15:57:00.666Z,11.60
2019-04-14T15:59:39.693Z,11.50
2019-04-14T16:02:25.165Z,11.40
2019-04-14T16:05:13.371Z,11.30
2019-04-14T16:08:00.002Z,11.30
2019-04-14T16:10:42.133Z,11.30
2019-04-14T16:13:12.210Z,11.40
2019-04-14T16:15:51.057Z,11.20
2019-04-14T16:18:37.402Z,11.20
2019-04-14T16:21:06.491Z,11.20
2019-04-14T16:23:35.039Z,11.10
2019-04-14T16:26:20.154Z,11.00
2019-04-14T16:29:02.674Z,10.90
2019-04-14T16:31:41.716Z,10.80
2019-04-14T16:34:13.872Z,10.80
2019-04-14T16:36:48.722Z,10.80
2019-04-14T16:39:21.619Z,10.70
2019-04-14T16:41:57.019Z,10.70
2019-04-14T16:44:29.555Z,10.60
2019-04-14T16:46:58.570Z,10.60
2019-04-14T16:49:29.038Z,10.60
2019-04-14T16:52:04.773Z,10.50
2019-04-14T16:54:54.262Z,10.40
2019-04-14T16:57:40.792Z,10.30
2019-04-14T17:00:10.925Z,10.30
2019-04-14T17:02:39.354Z,10.20
2019-04-14T17:05:07.770Z,10.20
2019-04-14T17:07:36.163Z,10.20
2019-04-14T17:10:04.943Z,10.10
2019-04-14T17:12:33.355Z,10.00
2019-04-14T17:15:20.111Z,10.00
2019-04-14T17:18:06.828Z,9.90
2019-04-14T17:20:53.340Z,9.80
2019-04-14T17:23:32.404Z,9.70
2019-04-14T17:26:03.156Z,9.60
2019-04-14T17:28:33.191Z,9.60
2019-04-14T17:31:06.250Z,9.50
2019-04-14T17:33:45.469Z,9.40
2019-04-14T17:36:27.888Z,9.40
2019-04-14T17:39:03.887Z,9.40
2019-04-14T17:41:33.995Z,9.20
2019-04-14T17:44:16.342Z,9.10
2019-04-14T17:46:46.398Z,9.10
2019-04-14T17:49:16.514Z,9.10
2019-04-14T17:51:46.630Z,9.10
2019-04-14T17:54:29.049Z,9.10
2019-04-14T17:57:10.960Z,9.10
2019-04-14T17:59:44.017Z,9.00
2019-04-14T18:02:14.082Z,9.00
2019-04-14T18:04:59.186Z,9.00
2019-04-14T18:07:31.916Z,8.90
2019-04-14T18:10:01.938Z,9.00
2019-04-14T18:12:34.551Z,8.90
2019-04-14T18:15:20.810Z,8.90
2019-04-14T18:17:56.922Z,8.90
2019-04-14T18:20:26.959Z,8.80
2019-04-14T18:22:55.374Z,8.80
2019-04-14T18:25:23.767Z,8.70
2019-04-14T18:28:10.459Z,8.60
2019-04-14T18:30:40.561Z,8.60
2019-04-14T18:33:13.556Z,8.50
2019-04-14T18:35:43.592Z,8.50
2019-04-14T18:38:25.930Z,8.40
2019-04-14T18:41:07.836Z,8.40
2019-04-14T18:43:40.641Z,8.40
2019-04-14T18:46:10.671Z,8.30
2019-04-14T18:48:40.750Z,8.30
2019-04-14T18:51:19.642Z,8.30
2019-04-14T18:53:55.677Z,8.30
2019-04-14T18:56:25.723Z,8.20
2019-04-14T18:59:04.550Z,8.10
2019-04-14T19:01:34.712Z,8.10
2019-04-14T19:04:03.102Z,8.10
2019-04-14T19:06:31.522Z,8.00
2019-04-14T19:08:59.929Z,8.00
2019-04-14T19:11:45.257Z,8.00
2019-04-14T19:14:15.352Z,7.80
2019-04-14T19:16:48.068Z,7.80
2019-04-14T19:19:18.146Z,7.80
2019-04-14T19:21:46.544Z,7.80
2019-04-14T19:24:15.025Z,7.70
2019-04-14T19:26:43.486Z,7.60
2019-04-14T19:29:11.897Z,7.50
2019-04-14T19:31:40.311Z,7.50
2019-04-14T19:34:08.741Z,7.50
2019-04-14T19:36:37.169Z,7.50
2019-04-14T19:39:10.090Z,7.50
2019-04-14T19:41:38.479Z,7.40
2019-04-14T19:44:06.908Z,7.30
2019-04-14T19:46:35.292Z,7.20
2019-04-14T19:49:03.707Z,7.10
2019-04-14T19:51:32.087Z,7.10
2019-04-14T19:54:00.512Z,7.10
2019-04-14T19:56:28.899Z,7.00
2019-04-14T19:58:57.322Z,7.00
2019-04-14T20:01:25.813Z,6.90
2019-04-14T20:03:54.327Z,6.90
2019-04-14T20:06:22.720Z,7.00
2019-04-14T20:08:51.133Z,6.90
2019-04-14T20:11:19.709Z,6.80
2019-04-14T20:13:48.122Z,6.80
2019-04-14T20:16:36.302Z,6.70
2019-04-14T20:19:22.413Z,6.80
2019-04-14T20:22:08.602Z,6.60
2019-04-14T20:24:47.387Z,6.50
2019-04-14T20:27:26.587Z,6.50
2019-04-14T20:30:17.768Z,6.40
2019-04-14T20:32:46.324Z,6.40
2019-04-14T20:35:16.539Z,6.50
2019-04-14T20:37:44.893Z,6.50
2019-04-14T20:40:13.370Z,6.30
2019-04-14T20:42:41.765Z,6.30
2019-04-14T20:45:12.323Z,6.20
2019-04-14T20:47:40.788Z,6.10
2019-04-14T20:50:09.274Z,6.10
2019-04-14T20:52:37.592Z,6.10
2019-04-14T20:55:06.539Z,6.10
2019-04-14T20:57:35.004Z,6.10
2019-04-14T21:00:03.956Z,6.00
2019-04-14T21:02:33.983Z,6.00
2019-04-14T21:05:22.132Z,5.90
2019-04-14T21:08:08.633Z,5.70
2019-04-14T21:10:44.328Z,5.60
2019-04-14T21:13:14.432Z,5.60
2019-04-14T21:15:47.022Z,5.50
2019-04-14T21:18:17.061Z,5.60
2019-04-14T21:20:55.886Z,5.50
2019-04-14T21:23:42.177Z,5.50
2019-04-14T21:26:21.208Z,5.50
2019-04-14T21:28:54.426Z,5.40
2019-04-14T21:31:26.736Z,5.40
2019-04-14T21:34:02.559Z,5.70
2019-04-14T21:36:49.132Z,5.50
2019-04-14T21:39:19.133Z,5.50
2019-04-14T21:41:51.570Z,5.50
2019-04-14T21:44:19.998Z,5.40
2019-04-14T21:46:48.386Z,5.30
2019-04-14T21:49:16.823Z,5.40
2019-04-14T21:51:58.923Z,5.50
2019-04-14T21:54:27.332Z,5.60
2019-04-14T21:57:13.775Z,5.50
2019-04-14T22:00:00.097Z,5.40
2019-04-14T22:02:48.100Z,5.30
2019-04-14T22:05:34.732Z,5.20
2019-04-14T22:08:04.766Z,5.20
2019-04-14T22:10:34.809Z,5.10
2019-04-14T22:13:03.237Z,5.20
2019-04-14T22:15:31.636Z,5.00
2019-04-14T22:18:00.502Z,5.00
2019-04-14T22:20:28.906Z,4.80
2019-04-14T22:22:58.061Z,4.80
2019-04-14T22:25:26.559Z,4.80
2019-04-14T22:27:54.955Z,5.00
2019-04-14T22:30:23.372Z,4.80
2019-04-14T22:32:51.891Z,4.60
2019-04-14T22:35:20.303Z,4.50
2019-04-14T22:37:48.696Z,4.40
2019-04-14T22:40:17.175Z,4.40
2019-04-14T22:42:45.647Z,4.50
2019-04-14T22:45:14.028Z,4.50
2019-04-14T22:47:42.442Z,4.40
2019-04-14T22:50:10.851Z,4.50
2019-04-14T22:52:39.309Z,4.60
2019-04-14T22:55:07.825Z,4.60
2019-04-14T22:57:36.225Z,4.60
2019-04-14T23:00:31.449Z,4.70
2019-04-14T23:03:04.197Z,4.60
2019-04-14T23:05:34.211Z,4.60
2019-04-14T23:08:21.114Z,4.80
2019-04-14T23:10:54.133Z,4.80
2019-04-14T23:13:29.878Z,4.60
2019-04-14T23:16:16.375Z,4.60
2019-04-14T23:18:58.008Z,4.40
2019-04-14T23:21:30.780Z,4.40
2019-04-14T23:24:00.791Z,4.30
2019-04-14T23:26:29.187Z,4.30
2019-04-14T23:28:57.569Z,4.20
2019-04-14T23:31:25.968Z,4.20
2019-04-14T23:33:54.342Z,4.30
2019-04-14T23:36:22.740Z,4.40
2019-04-14T23:38:51.115Z,4.20
2019-04-14T23:41:19.519Z,4.10
2019-04-14T23:43:47.886Z,4.00
2019-04-14T23:46:16.207Z,4.00
2019-04-14T23:48:44.648Z,4.00
2019-04-14T23:51:13.047Z,4.00
2019-04-14T23:53:42.220Z,4.10
2019-04-14T23:56:10.596Z,4.30
2019-04-14T23:58:38.983Z,4.10
